createdAt,value
2022-12-04T00:00:48.015Z,0.70
2022-12-04T00:03:20.301Z,0.80
2022-12-04T00:05:47.245Z,0.70
2022-12-04T00:08:14.787Z,0.70
2022-12-04T00:10:43.678Z,0.70
2022-12-04T00:13:11.194Z,0.70
2022-12-04T00:15:43.121Z,0.80
2022-12-04T00:18:10.522Z,0.70
2022-12-04T00:20:40.370Z,0.70
2022-12-04T00:23:08.028Z,0.80
2022-12-04T00:25:39.403Z,0.80
2022-12-04T00:28:08.913Z,0.80
2022-12-04T00:30:35.773Z,0.70
2022-12-04T00:33:03.273Z,0.70
2022-12-04T00:35:30.111Z,0.80
2022-12-04T00:37:57.543Z,0.70
2022-12-04T00:40:24.434Z,0.70
2022-12-04T00:42:51.966Z,0.70
2022-12-04T00:45:18.822Z,0.70
2022-12-04T00:47:46.420Z,0.70
2022-12-04T00:50:13.269Z,0.70
2022-12-04T00:52:40.746Z,0.70
2022-12-04T00:55:08.204Z,0.70
2022-12-04T00:57:35.614Z,0.70
2022-12-04T01:00:03.545Z,0.70
2022-12-04T01:02:31.309Z,0.70
2022-12-04T01:05:00.468Z,0.70
2022-12-04T01:07:27.710Z,0.70
2022-12-04T01:09:54.793Z,0.70
2022-12-04T01:12:22.091Z,0.70
2022-12-04T01:14:49.031Z,0.70
2022-12-04T01:17:16.469Z,0.70
2022-12-04T01:19:43.369Z,0.70
2022-12-04T01:22:10.801Z,0.70
2022-12-04T01:24:37.655Z,0.70
2022-12-04T01:27:05.235Z,0.70
2022-12-04T01:29:32.084Z,0.70
2022-12-04T01:31:59.568Z,0.70
2022-12-04T01:34:26.577Z,0.70
2022-12-04T01:36:54.009Z,0.60
2022-12-04T01:39:21.079Z,0.70
2022-12-04T01:41:48.262Z,0.70
2022-12-04T01:44:21.556Z,0.70
2022-12-04T01:46:56.655Z,0.70
2022-12-04T01:49:45.076Z,0.70
2022-12-04T01:52:24.496Z,0.70
2022-12-04T01:54:56.438Z,0.70
2022-12-04T01:57:26.657Z,0.70
2022-12-04T02:00:01.704Z,0.70
2022-12-04T02:02:38.252Z,0.70
2022-12-04T02:05:07.487Z,0.70
2022-12-04T02:07:36.029Z,0.70
2022-12-04T02:10:08.660Z,0.70
2022-12-04T02:13:15.350Z,0.70
2022-12-04T02:16:05.152Z,0.70
2022-12-04T02:18:46.165Z,0.70
2022-12-04T02:21:31.389Z,0.70
2022-12-04T02:24:17.313Z,0.70
2022-12-04T02:27:18.751Z,0.70
2022-12-04T02:29:58.080Z,0.70
2022-12-04T02:32:31.655Z,0.70
2022-12-04T02:35:01.497Z,0.70
2022-12-04T02:37:43.124Z,0.70
2022-12-04T02:40:33.890Z,0.70
2022-12-04T02:43:12.970Z,0.70
2022-12-04T02:45:51.636Z,0.70
2022-12-04T02:48:21.085Z,0.70
2022-12-04T02:50:52.227Z,0.70
2022-12-04T02:53:31.723Z,0.70
2022-12-04T02:56:05.055Z,0.70
2022-12-04T02:58:34.966Z,0.70
2022-12-04T03:01:19.462Z,0.60
2022-12-04T03:04:07.853Z,0.60
2022-12-04T03:06:39.190Z,0.70
2022-12-04T03:09:16.325Z,0.60
2022-12-04T03:11:52.501Z,0.60
2022-12-04T03:14:32.269Z,0.60
2022-12-04T03:17:06.396Z,0.70
2022-12-04T03:19:48.514Z,0.60
2022-12-04T03:22:19.708Z,0.70
2022-12-04T03:24:52.918Z,0.60
2022-12-04T03:27:33.352Z,0.60
2022-12-04T03:30:00.179Z,0.60
2022-12-04T03:32:33.723Z,0.60
2022-12-04T03:35:16.481Z,0.60
2022-12-04T03:38:27.150Z,0.60
2022-12-04T03:41:04.927Z,0.60
2022-12-04T03:44:07.885Z,0.60
2022-12-04T03:46:41.633Z,0.70
2022-12-04T03:49:22.160Z,0.60
2022-12-04T03:52:21.116Z,0.70
2022-12-04T03:54:57.441Z,0.60
2022-12-04T03:57:30.541Z,0.60
2022-12-04T04:00:05.859Z,0.60
2022-12-04T04:02:36.569Z,0.60
2022-12-04T04:05:08.791Z,0.60
2022-12-04T04:08:23.563Z,0.60
2022-12-04T04:10:53.272Z,0.60
2022-12-04T04:13:44.354Z,0.60
2022-12-04T04:16:35.059Z,0.60
2022-12-04T04:19:21.721Z,0.60
2022-12-04T04:24:43.354Z,0.60
2022-12-04T04:27:11.328Z,0.50
2022-12-04T04:29:39.250Z,0.60
2022-12-04T04:32:20.905Z,0.70
2022-12-04T04:35:13.483Z,0.60
2022-12-04T04:37:48.668Z,0.60
2022-12-04T04:40:28.225Z,0.60
2022-12-04T04:43:19.176Z,0.60
2022-12-04T04:45:58.074Z,0.60
2022-12-04T04:48:40.316Z,0.60
2022-12-04T04:51:07.848Z,0.60
2022-12-04T04:53:46.915Z,0.60
2022-12-04T04:56:14.528Z,0.60
2022-12-04T04:58:42.761Z,0.60
2022-12-04T05:01:13.129Z,0.60
2022-12-04T05:03:41.235Z,0.60
2022-12-04T05:06:08.831Z,0.60
2022-12-04T05:08:36.558Z,0.60
2022-12-04T05:11:04.182Z,0.60
2022-12-04T05:13:32.711Z,0.60
2022-12-04T05:16:08.383Z,0.60
2022-12-04T05:18:36.117Z,0.60
2022-12-04T05:21:21.058Z,0.60
2022-12-04T05:23:50.794Z,0.60
2022-12-04T05:26:17.651Z,0.60
2022-12-04T05:28:45.082Z,0.60
2022-12-04T05:31:12.014Z,0.70
2022-12-04T05:33:39.566Z,0.70
2022-12-04T05:36:09.545Z,0.60
2022-12-04T05:38:37.773Z,0.70
2022-12-04T05:41:05.854Z,0.60
2022-12-04T05:43:33.380Z,0.70
2022-12-04T05:46:05.348Z,0.70
2022-12-04T05:48:33.213Z,0.70
2022-12-04T05:51:00.194Z,0.70
2022-12-04T05:53:27.677Z,0.70
2022-12-04T05:55:59.385Z,0.70
2022-12-04T05:58:27.524Z,0.70
2022-12-04T06:00:55.064Z,0.70
2022-12-04T06:03:23.105Z,0.70
2022-12-04T06:05:50.123Z,0.70
2022-12-04T06:08:17.368Z,0.70
2022-12-04T06:10:44.321Z,0.70
2022-12-04T06:13:11.461Z,0.70
2022-12-04T06:15:39.733Z,0.70
2022-12-04T06:18:07.552Z,0.70
2022-12-04T06:20:35.239Z,0.70
2022-12-04T06:23:02.773Z,0.70
2022-12-04T06:25:29.791Z,0.70
2022-12-04T06:27:56.955Z,0.70
2022-12-04T06:30:24.005Z,0.60
2022-12-04T06:32:51.231Z,0.70
2022-12-04T06:35:18.211Z,0.60
2022-12-04T06:37:45.364Z,0.70
2022-12-04T06:40:12.430Z,0.70
2022-12-04T06:42:39.592Z,0.70
2022-12-04T06:45:07.181Z,0.70
2022-12-04T06:47:36.285Z,0.70
2022-12-04T06:50:04.721Z,0.70
2022-12-04T06:52:34.982Z,0.70
2022-12-04T06:55:01.970Z,0.70
2022-12-04T06:57:29.395Z,0.80
2022-12-04T06:59:56.804Z,0.70
2022-12-04T07:02:24.494Z,0.70
2022-12-04T07:04:56.427Z,0.70
2022-12-04T07:07:23.816Z,0.70
2022-12-04T07:09:50.760Z,0.70
2022-12-04T07:12:17.978Z,0.70
2022-12-04T07:14:44.852Z,0.70
2022-12-04T07:17:12.180Z,0.80
2022-12-04T07:19:39.088Z,0.80
2022-12-04T07:22:08.928Z,0.80
2022-12-04T07:24:37.627Z,0.70
2022-12-04T07:27:04.877Z,0.90
2022-12-04T07:29:32.325Z,0.70
2022-12-04T07:31:59.613Z,1.30
2022-12-04T07:34:26.605Z,0.70
2022-12-04T07:36:54.001Z,0.70
2022-12-04T07:39:20.940Z,0.70
2022-12-04T07:41:48.407Z,0.70
2022-12-04T07:44:15.286Z,0.70
2022-12-04T07:46:42.862Z,0.70
2022-12-04T07:49:12.862Z,0.70
2022-12-04T07:51:40.293Z,0.70
2022-12-04T07:54:08.874Z,0.70
2022-12-04T07:56:36.270Z,0.70
2022-12-04T07:59:03.490Z,0.80
2022-12-04T08:01:31.563Z,0.70
2022-12-04T08:04:00.497Z,0.80
2022-12-04T08:06:29.202Z,0.70
2022-12-04T08:08:57.432Z,0.70
2022-12-04T08:11:27.127Z,0.70
2022-12-04T08:14:02.317Z,0.70
2022-12-04T08:16:31.685Z,0.70
2022-12-04T08:18:59.401Z,0.70
2022-12-04T08:21:28.945Z,0.70
2022-12-04T08:23:57.995Z,0.70
2022-12-04T08:26:27.109Z,0.70
2022-12-04T08:28:54.774Z,0.70
2022-12-04T08:31:25.218Z,0.70
2022-12-04T08:33:54.857Z,0.70
2022-12-04T08:36:22.803Z,0.70
2022-12-04T08:38:49.768Z,0.70
2022-12-04T08:41:21.488Z,0.70
2022-12-04T08:43:48.460Z,0.70
2022-12-04T08:46:17.294Z,0.70
2022-12-04T08:48:45.452Z,0.70
2022-12-04T08:51:19.021Z,0.70
2022-12-04T08:53:46.226Z,0.70
2022-12-04T08:56:14.105Z,0.80
2022-12-04T08:58:41.331Z,0.70
2022-12-04T09:01:11.865Z,0.70
2022-12-04T09:03:39.775Z,0.70
2022-12-04T09:06:08.615Z,0.70
2022-12-04T09:08:36.276Z,0.80
2022-12-04T09:11:12.437Z,0.80
2022-12-04T09:13:41.098Z,0.80
2022-12-04T09:16:14.317Z,0.80
2022-12-04T09:18:41.361Z,0.80
2022-12-04T09:21:12.095Z,0.90
2022-12-04T09:23:39.678Z,0.90
2022-12-04T09:26:18.569Z,0.90
2022-12-04T09:28:46.337Z,0.90
2022-12-04T09:31:13.962Z,0.90
2022-12-04T09:33:40.951Z,0.90
2022-12-04T09:36:16.028Z,0.90
2022-12-04T09:38:48.339Z,0.90
2022-12-04T09:41:50.648Z,0.90
2022-12-04T09:44:28.226Z,0.90
2022-12-04T09:47:04.980Z,1.60
2022-12-04T09:49:53.677Z,1.00
2022-12-04T09:52:33.118Z,1.00
2022-12-04T09:55:03.546Z,1.00
2022-12-04T09:57:40.686Z,1.00
2022-12-04T10:00:13.330Z,1.10
2022-12-04T10:02:44.710Z,1.10
2022-12-04T10:05:20.071Z,1.10
2022-12-04T10:08:06.196Z,1.10
2022-12-04T10:10:42.559Z,1.10
2022-12-04T10:13:23.890Z,1.10
2022-12-04T10:16:14.914Z,1.10
2022-12-04T10:19:12.776Z,1.10
2022-12-04T10:22:00.945Z,1.20
2022-12-04T10:24:49.828Z,1.20
2022-12-04T10:27:25.899Z,1.10
2022-12-04T10:29:59.325Z,1.20
2022-12-04T10:32:31.430Z,1.20
2022-12-04T10:35:21.508Z,1.30
2022-12-04T10:37:54.721Z,1.30
2022-12-04T10:40:33.249Z,1.30
2022-12-04T10:43:15.701Z,1.40
2022-12-04T10:45:43.591Z,1.40
2022-12-04T10:48:24.165Z,1.40
2022-12-04T10:50:51.774Z,1.50
2022-12-04T10:53:29.486Z,1.50
2022-12-04T10:56:07.348Z,1.50
2022-12-04T10:58:34.209Z,1.50
2022-12-04T11:01:05.243Z,1.50
2022-12-04T11:03:32.657Z,1.50
2022-12-04T11:06:08.607Z,1.50
2022-12-04T11:08:44.918Z,1.50
2022-12-04T11:11:14.472Z,1.50
2022-12-04T11:13:42.401Z,1.50
2022-12-04T11:16:33.804Z,1.60
2022-12-04T11:19:00.809Z,1.50
2022-12-04T11:21:30.798Z,1.50
2022-12-04T11:23:58.648Z,1.50
2022-12-04T11:26:32.658Z,1.50
2022-12-04T11:29:01.830Z,1.50
2022-12-04T11:31:30.491Z,1.50
2022-12-04T11:34:03.023Z,1.50
2022-12-04T11:36:41.122Z,1.60
2022-12-04T11:39:15.477Z,1.50
2022-12-04T11:41:42.916Z,1.50
2022-12-04T11:44:32.393Z,1.50
2022-12-04T11:47:02.527Z,1.50
2022-12-04T11:49:32.338Z,1.50
2022-12-04T11:52:19.316Z,1.50
2022-12-04T11:55:02.208Z,1.50
2022-12-04T11:57:51.400Z,1.50
2022-12-04T12:00:21.078Z,1.50
2022-12-04T12:03:16.400Z,1.40
2022-12-04T12:05:53.786Z,1.40
2022-12-04T12:08:47.189Z,1.40
2022-12-04T12:11:19.811Z,1.40
2022-12-04T12:13:54.590Z,1.40
2022-12-04T12:16:31.583Z,1.40
2022-12-04T12:19:21.170Z,1.40
2022-12-04T12:22:21.797Z,1.40
2022-12-04T12:25:03.773Z,1.40
2022-12-04T12:27:48.114Z,1.50
2022-12-04T12:30:21.608Z,1.30
2022-12-04T12:33:05.036Z,1.40
2022-12-04T12:35:40.702Z,1.40
2022-12-04T12:38:14.889Z,1.30
2022-12-04T12:40:47.721Z,1.30
2022-12-04T12:43:32.014Z,1.30
2022-12-04T12:46:18.329Z,1.30
2022-12-04T12:49:07.463Z,1.30
2022-12-04T12:51:50.835Z,1.30
2022-12-04T12:54:38.898Z,1.30
2022-12-04T12:57:21.375Z,1.30
2022-12-04T12:59:58.175Z,1.30
2022-12-04T13:02:30.224Z,1.30
2022-12-04T13:05:01.331Z,1.20
2022-12-04T13:07:53.591Z,1.30
2022-12-04T13:10:25.782Z,1.30
2022-12-04T13:13:07.888Z,1.30
2022-12-04T13:15:43.293Z,1.10
2022-12-04T13:18:20.689Z,1.30
2022-12-04T13:20:54.418Z,1.20
2022-12-04T13:23:28.044Z,1.20
2022-12-04T13:26:01.842Z,1.20
2022-12-04T13:28:51.437Z,1.20
2022-12-04T13:31:31.309Z,1.10
2022-12-04T13:34:46.364Z,1.40
2022-12-04T13:37:49.872Z,1.20
2022-12-04T13:40:29.164Z,1.20
2022-12-04T13:43:16.981Z,1.20
2022-12-04T13:45:50.725Z,1.20
2022-12-04T13:48:42.080Z,1.20
2022-12-04T13:51:15.606Z,1.20
2022-12-04T13:53:43.861Z,1.20
2022-12-04T13:56:29.085Z,1.20
2022-12-04T13:59:22.794Z,1.20
2022-12-04T14:01:52.728Z,1.20
2022-12-04T14:04:35.482Z,1.20
2022-12-04T14:07:04.011Z,1.20
2022-12-04T14:09:49.197Z,1.20
2022-12-04T14:12:17.800Z,1.20
2022-12-04T14:15:03.519Z,1.20
2022-12-04T14:17:36.037Z,1.20
2022-12-04T14:20:21.785Z,1.20
2022-12-04T14:22:49.643Z,1.20
2022-12-04T14:25:16.645Z,1.20
2022-12-04T14:27:46.624Z,1.10
2022-12-04T14:30:21.777Z,1.10
2022-12-04T14:33:10.482Z,1.10
2022-12-04T14:35:48.013Z,1.10
2022-12-04T14:38:20.949Z,1.10
2022-12-04T14:40:51.722Z,1.10
2022-12-04T14:43:24.038Z,1.10
2022-12-04T14:46:15.765Z,1.10
2022-12-04T14:49:01.819Z,1.10
2022-12-04T14:51:37.793Z,1.10
2022-12-04T14:54:36.310Z,1.10
2022-12-04T14:57:20.306Z,1.00
2022-12-04T14:59:50.191Z,1.10
2022-12-04T15:02:33.197Z,1.10
2022-12-04T15:05:02.352Z,1.10
2022-12-04T15:07:31.773Z,1.00
2022-12-04T15:10:19.970Z,1.10
2022-12-04T15:12:50.321Z,1.00
2022-12-04T15:15:29.196Z,1.00
2022-12-04T15:18:00.026Z,1.00
2022-12-04T15:20:30.481Z,1.00
2022-12-04T15:22:59.246Z,1.00
2022-12-04T15:25:31.447Z,1.00
2022-12-04T15:28:27.525Z,1.00
2022-12-04T15:30:56.817Z,1.00
2022-12-04T15:33:35.640Z,1.00
2022-12-04T15:36:19.815Z,1.00
2022-12-04T15:38:49.673Z,1.00
2022-12-04T15:41:37.333Z,1.00
2022-12-04T15:44:29.244Z,1.00
2022-12-04T15:47:00.155Z,1.00
2022-12-04T15:49:33.768Z,1.00
2022-12-04T15:52:17.002Z,1.00
2022-12-04T15:54:57.365Z,1.00
2022-12-04T15:57:34.459Z,1.00
2022-12-04T16:00:05.359Z,1.00
2022-12-04T16:02:40.541Z,1.00
2022-12-04T16:05:20.078Z,1.00
2022-12-04T16:07:50.094Z,1.00
2022-12-04T16:10:29.682Z,1.00
2022-12-04T16:12:59.373Z,1.00
2022-12-04T16:15:34.337Z,1.00
2022-12-04T16:18:02.325Z,1.00
2022-12-04T16:20:29.251Z,1.00
2022-12-04T16:22:56.480Z,1.00
2022-12-04T16:25:23.499Z,1.00
2022-12-04T16:27:50.911Z,1.00
2022-12-04T16:30:17.890Z,1.00
2022-12-04T16:32:45.222Z,1.00
2022-12-04T16:35:17.106Z,1.10
2022-12-04T16:37:45.096Z,1.00
2022-12-04T16:40:13.192Z,1.00
2022-12-04T16:42:41.198Z,1.00
2022-12-04T16:45:22.889Z,1.00
2022-12-04T16:47:51.121Z,1.00
2022-12-04T16:50:18.055Z,1.00
2022-12-04T16:52:45.213Z,1.00
2022-12-04T16:55:27.645Z,1.10
2022-12-04T16:57:54.793Z,1.10
2022-12-04T17:00:21.891Z,1.10
2022-12-04T17:02:49.202Z,1.10
2022-12-04T17:05:24.742Z,1.10
2022-12-04T17:07:52.933Z,1.00
2022-12-04T17:10:23.955Z,1.10
2022-12-04T17:12:53.589Z,1.10
2022-12-04T17:15:20.895Z,1.10
2022-12-04T17:17:48.243Z,1.10
2022-12-04T17:20:18.012Z,1.10
2022-12-04T17:22:45.548Z,1.10
2022-12-04T17:25:13.284Z,1.10
2022-12-04T17:27:40.887Z,1.10
2022-12-04T17:30:09.026Z,1.10
2022-12-04T17:32:36.455Z,1.10
2022-12-04T17:35:05.283Z,1.10
2022-12-04T17:37:33.716Z,1.10
2022-12-04T17:40:00.746Z,1.10
2022-12-04T17:42:28.465Z,1.10
2022-12-04T17:44:55.787Z,1.00
2022-12-04T17:47:23.545Z,1.10
2022-12-04T17:49:50.489Z,1.10
2022-12-04T17:52:19.219Z,1.10
2022-12-04T17:54:46.135Z,1.00
2022-12-04T17:57:13.582Z,1.10
2022-12-04T17:59:41.236Z,1.10
2022-12-04T18:02:10.169Z,1.20
2022-12-04T18:04:37.253Z,1.10
2022-12-04T18:07:04.908Z,0.90
2022-12-04T18:09:32.466Z,1.10
2022-12-04T18:12:01.621Z,0.80
2022-12-04T18:14:29.680Z,1.00
2022-12-04T18:16:58.075Z,1.00
2022-12-04T18:19:27.222Z,1.10
2022-12-04T18:21:55.087Z,1.00
2022-12-04T18:24:23.420Z,1.30
2022-12-04T18:26:51.280Z,1.00
2022-12-04T18:29:24.649Z,1.00
2022-12-04T18:34:20.631Z,1.00
2022-12-04T18:36:49.000Z,1.00
2022-12-04T18:39:18.677Z,1.00
2022-12-04T18:41:46.229Z,1.00
2022-12-04T18:44:13.868Z,1.00
2022-12-04T18:46:41.727Z,1.00
2022-12-04T18:49:09.845Z,1.00
2022-12-04T18:51:43.671Z,1.00
2022-12-04T18:54:15.575Z,1.00
2022-12-04T18:56:43.905Z,1.00
2022-12-04T18:59:23.300Z,1.00
2022-12-04T19:01:51.761Z,1.00
2022-12-04T19:04:20.305Z,1.00
2022-12-04T19:06:50.644Z,1.10
2022-12-04T19:09:20.358Z,1.00
2022-12-04T19:11:47.799Z,1.00
2022-12-04T19:14:23.089Z,1.00
2022-12-04T19:16:50.949Z,1.00
2022-12-04T19:19:18.347Z,1.00
2022-12-04T19:21:45.600Z,1.00
2022-12-04T19:24:13.915Z,0.90
2022-12-04T19:26:42.688Z,1.00
2022-12-04T19:29:13.778Z,1.00
2022-12-04T19:31:41.822Z,1.00
2022-12-04T19:34:09.524Z,0.90
2022-12-04T19:36:36.886Z,1.00
2022-12-04T19:39:07.071Z,0.90
2022-12-04T19:41:35.282Z,0.90
2022-12-04T19:44:14.655Z,0.90
2022-12-04T19:46:50.231Z,0.90
2022-12-04T19:49:17.117Z,0.80
2022-12-04T19:51:44.427Z,0.90
2022-12-04T19:54:13.393Z,0.80
2022-12-04T19:56:42.768Z,0.90
2022-12-04T19:59:10.651Z,0.80
2022-12-04T20:01:38.166Z,0.90
2022-12-04T20:04:07.073Z,0.80
2022-12-04T20:06:40.746Z,0.90
2022-12-04T20:09:10.907Z,0.90
2022-12-04T20:11:39.578Z,0.70
2022-12-04T20:14:07.983Z,0.90
2022-12-04T20:16:36.456Z,0.80
2022-12-04T20:19:05.225Z,0.80
2022-12-04T20:21:32.753Z,0.90
2022-12-04T20:24:04.776Z,0.90
2022-12-04T20:26:38.807Z,0.90
2022-12-04T20:29:08.694Z,0.60
2022-12-04T20:31:38.534Z,0.80
2022-12-04T20:34:07.906Z,0.80
2022-12-04T20:36:38.083Z,0.80
2022-12-04T20:39:05.924Z,0.80
2022-12-04T20:41:34.365Z,0.80
2022-12-04T20:44:05.176Z,0.80
2022-12-04T20:46:35.519Z,0.80
2022-12-04T20:49:06.389Z,0.70
2022-12-04T20:51:40.455Z,0.80
2022-12-04T20:54:08.712Z,0.80
2022-12-04T20:56:37.555Z,0.80
2022-12-04T20:59:10.598Z,0.80
2022-12-04T21:01:38.074Z,0.80
2022-12-04T21:04:05.937Z,0.80
2022-12-04T21:06:35.983Z,0.80
2022-12-04T21:09:17.675Z,0.80
2022-12-04T21:11:53.160Z,0.80
2022-12-04T21:14:41.526Z,0.80
2022-12-04T21:17:11.788Z,0.80
2022-12-04T21:19:39.079Z,0.80
2022-12-04T21:22:06.582Z,0.70
2022-12-04T21:24:38.428Z,0.80
2022-12-04T21:27:07.969Z,0.80
2022-12-04T21:29:36.853Z,0.80
2022-12-04T21:32:05.987Z,0.80
2022-12-04T21:34:33.336Z,0.80
2022-12-04T21:37:00.652Z,0.80
2022-12-04T21:39:27.745Z,0.80
2022-12-04T21:42:13.606Z,0.80
2022-12-04T21:44:40.667Z,0.70
2022-12-04T21:47:08.111Z,0.80
2022-12-04T21:49:34.930Z,0.70
2022-12-04T21:52:02.151Z,0.80
2022-12-04T21:54:29.834Z,0.80
2022-12-04T21:56:57.659Z,0.80
2022-12-04T21:59:25.652Z,0.80
2022-12-04T22:01:53.564Z,0.80
2022-12-04T22:04:21.091Z,0.70
2022-12-04T22:06:48.754Z,0.70
2022-12-04T22:09:15.849Z,0.70
2022-12-04T22:11:43.463Z,0.70
2022-12-04T22:14:11.675Z,0.70
2022-12-04T22:16:42.732Z,0.80
2022-12-04T22:19:12.122Z,0.70
2022-12-04T22:21:39.839Z,0.80
2022-12-04T22:24:07.398Z,0.70
2022-12-04T22:26:34.844Z,0.70
2022-12-04T22:29:03.139Z,0.70
2022-12-04T22:31:32.639Z,0.70
2022-12-04T22:34:01.079Z,0.70
2022-12-04T22:36:31.493Z,0.70
2022-12-04T22:39:09.263Z,0.60
2022-12-04T22:41:37.949Z,0.60
2022-12-04T22:44:05.633Z,0.60
2022-12-04T22:46:33.717Z,0.60
2022-12-04T22:49:00.737Z,0.60
2022-12-04T22:51:28.876Z,0.60
2022-12-04T22:53:57.860Z,0.60
2022-12-04T22:56:28.347Z,0.60
2022-12-04T22:58:56.436Z,0.60
2022-12-04T23:01:34.204Z,0.60
2022-12-04T23:04:03.027Z,0.60
2022-12-04T23:06:33.748Z,0.60
2022-12-04T23:09:07.310Z,0.60
2022-12-04T23:11:36.531Z,0.60
2022-12-04T23:14:06.341Z,0.60
2022-12-04T23:16:36.313Z,0.60
2022-12-04T23:19:04.446Z,0.60
2022-12-04T23:21:31.853Z,0.60
2022-12-04T23:23:58.925Z,0.60
2022-12-04T23:26:46.862Z,0.60
2022-12-04T23:29:36.852Z,0.60
2022-12-04T23:32:01.729Z,0.60
2022-12-04T23:34:28.750Z,0.50
2022-12-04T23:36:55.927Z,0.70
2022-12-04T23:39:22.842Z,0.60
2022-12-04T23:41:50.030Z,0.50
2022-12-04T23:44:16.926Z,0.50
2022-12-04T23:46:44.389Z,0.50
2022-12-04T23:49:11.317Z,0.50
2022-12-04T23:51:38.492Z,0.50
2022-12-04T23:54:05.736Z,0.50
2022-12-04T23:56:33.101Z,0.60
2022-12-04T23:59:00.119Z,0.50
